Time;durP1;ratioP1;P1;durP2;ratioP2;P2;SDS_P1;SDS_P2;PMS_P1;PMS_P2;Temp;Humidity;BMP_temperature;BMP_pressure;BME280_temperature;BME280_humidity;BME280_pressure;Samples;Min_cycle;Max_cycle;Signal;HPM_P1;HPM_P2
2022/06/18 17:09:05;;;;;;;0.30;0.30;;;43.90;25.70;;;42.75;17.91;95067.63;5078752;27;20600;-78
2022/06/18 17:11:33;;;;;;;0.40;0.40;;;43.60;27.20;;;43.25;17.62;95077.75;5078639;28;20293;-79
2022/06/18 17:14:00;;;;;;;0.30;0.30;;;43.70;27.40;;;43.67;17.86;95068.47;5049455;28;20194;-80
2022/06/18 17:16:27;;;;;;;0.38;0.38;;;44.00;27.30;;;44.11;17.17;95068.22;5088264;28;20241;-80
2022/06/18 17:18:55;;;;;;;0.30;0.30;;;44.30;26.30;;;44.39;17.20;95069.97;5061173;28;20220;-79
2022/06/18 17:21:22;;;;;;;0.30;0.30;;;44.60;27.00;;;44.57;17.06;95069.00;5083986;28;20697;-79
2022/06/18 17:32:14;;;;;;;0.30;0.30;;;44.80;25.40;;;44.19;16.11;95068.91;5080692;28;20325;-80
2022/06/18 17:34:42;;;;;;;0.40;0.40;;;44.70;25.50;;;44.02;16.67;95067.88;5070803;28;20222;-79
2022/06/18 17:37:11;;;;;;;0.30;0.30;;;44.40;25.90;;;43.88;16.54;95061.22;5057084;28;20246;-79
2022/06/18 17:39:39;;;;;;;0.30;0.30;;;44.30;25.60;;;43.73;17.04;95060.56;5057026;28;20222;-79
2022/06/18 17:42:06;;;;;;;0.32;0.32;;;44.10;26.40;;;43.56;17.61;95053.94;5082943;28;20271;-79
2022/06/18 17:44:33;;;;;;;0.20;0.20;;;44.00;27.40;;;43.42;18.10;95057.56;5052608;28;20226;-79
2022/06/18 17:47:01;;;;;;;0.40;0.40;;;43.80;27.40;;;43.33;17.92;95054.44;5067534;28;20187;-79
2022/06/18 17:49:28;;;;;;;0.30;0.30;;;43.60;27.50;;;43.19;18.14;95053.31;5050342;28;20223;-80
2022/06/18 17:51:55;;;;;;;0.20;0.20;;;43.40;27.70;;;43.04;17.90;95046.25;5041441;28;20206;-79
2022/06/18 17:54:22;;;;;;;0.22;0.22;;;43.30;26.90;;;42.81;18.14;95047.53;5070713;28;20666;-79
2022/06/18 17:56:49;;;;;;;0.30;0.30;;;43.10;27.30;;;42.61;18.22;95058.19;5070930;28;20209;-79
2022/06/18 17:59:18;;;;;;;0.35;0.35;;;42.80;27.50;;;42.27;18.01;95055.84;5087211;28;20197;-80
2022/06/18 18:01:52;;;;;;;0.30;0.30;;;42.50;27.00;;;41.77;17.78;95070.34;5084808;28;20391;-79
2022/06/18 18:04:37;;;;;;;0.20;0.20;;;42.10;26.90;;;41.20;18.40;95066.25;5067461;28;20529;-80
2022/06/18 18:07:08;;;;;;;0.30;0.30;;;41.50;28.30;;;40.60;19.22;95070.25;5057897;28;20241;-79
2022/06/18 18:09:37;;;;;;;0.25;0.25;;;40.90;28.70;;;40.00;19.52;95072.91;5058798;28;20218;-80
2022/06/18 18:12:06;;;;;;;0.30;0.30;;;40.30;29.30;;;39.42;20.06;95070.72;5065868;28;20216;-79
2022/06/18 18:14:39;;;;;;;0.20;0.20;;;39.60;29.70;;;38.82;20.22;95066.84;5046297;28;20705;-79
2022/06/18 18:17:09;;;;;;;0.20;0.20;;;39.00;30.20;;;38.26;20.32;95067.16;5050048;28;20190;-79
2022/06/18 18:19:37;;;;;;;0.20;0.20;;;38.40;29.80;;;37.71;21.25;95075.63;5057119;28;20285;-80
2022/06/18 18:22:05;;;;;;;0.22;0.22;;;37.80;31.10;;;37.13;20.85;95065.50;5036531;28;20628;-79
2022/06/18 18:24:33;;;;;;;0.30;0.30;;;37.30;31.00;;;36.62;21.19;95067.16;5051652;28;20274;-79
2022/06/18 18:27:09;;;;;;;0.30;0.30;;;36.70;31.40;;;36.09;21.82;95069.41;5035555;28;20198;-79
2022/06/18 18:29:42;;;;;;;0.20;0.20;;;36.20;32.60;;;35.62;22.35;95068.16;5051218;28;20235;-80
2022/06/18 18:32:11;;;;;;;0.20;0.20;;;35.60;32.50;;;35.16;22.46;95063.81;5052863;28;20710;-79
2022/06/18 18:34:38;;;;;;;0.20;0.20;;;35.10;33.40;;;34.76;23.04;95061.88;5034807;28;20627;-79
2022/06/18 18:37:07;;;;;;;0.20;0.20;;;34.70;33.50;;;34.34;23.46;95060.19;5035946;28;20210;-78
2022/06/18 18:39:37;;;;;;;0.20;0.20;;;34.20;34.60;;;33.98;23.62;95064.50;5039079;28;20303;-79
2022/06/18 18:42:07;;;;;;;0.32;0.32;;;33.80;35.00;;;33.60;23.94;95057.38;5052025;28;20193;-79
2022/06/18 18:44:36;;;;;;;0.30;0.30;;;33.40;36.10;;;33.23;24.46;95057.22;5050450;28;20698;-79
2022/06/18 18:47:07;;;;;;;0.30;0.30;;;32.90;35.50;;;32.90;25.09;95064.22;5043612;28;20221;-78
2022/06/18 18:49:36;;;;;;;0.20;0.20;;;32.60;36.40;;;32.59;24.35;95070.00;5050893;28;20277;-80
2022/06/18 18:52:06;;;;;;;0.20;0.20;;;32.20;35.80;;;32.29;25.19;95065.38;5053109;28;20235;-78
2022/06/18 18:54:35;;;;;;;0.30;0.30;;;31.90;36.70;;;32.03;25.07;95071.72;5036555;28;20704;-80
2022/06/18 18:57:04;;;;;;;0.40;0.40;;;31.60;36.90;;;31.73;24.85;95063.50;5052030;28;20218;-79
2022/06/18 18:59:34;;;;;;;0.30;0.30;;;31.30;36.80;;;31.58;25.29;95075.66;5054778;28;20232;-79
2022/06/18 19:02:03;;;;;;;0.35;0.35;;;31.00;37.30;;;31.37;25.57;95077.44;5060516;28;20535;-79
2022/06/18 19:04:31;;;;;;;0.30;0.30;;;30.80;38.20;;;31.19;26.38;95082.06;5051741;28;20274;-77
2022/06/18 19:07:00;;;;;;;0.40;0.40;;;30.60;38.20;;;30.99;26.06;95076.16;5035228;28;20743;-78
2022/06/18 19:09:29;;;;;;;0.30;0.30;;;30.40;38.70;;;30.79;26.36;95077.59;5052018;28;20228;-78
2022/06/18 19:14:47;;;;;;;0.30;0.30;;;30.00;39.50;;;30.38;27.63;95084.94;5044604;28;20416;-81
2022/06/18 19:17:14;;;;;;;0.40;0.40;;;29.80;39.60;;;30.23;27.13;95080.00;5049063;28;20196;-78
2022/06/18 19:19:42;;;;;;;0.30;0.30;;;29.60;39.80;;;30.09;27.84;95088.22;5030662;28;20437;-79
2022/06/18 19:22:09;;;;;;;0.30;0.30;;;29.40;40.00;;;29.93;28.09;95090.53;5031300;28;20228;-79
2022/06/18 19:24:37;;;;;;;0.30;0.30;;;29.30;40.60;;;29.83;27.81;95094.28;5031063;28;20919;-78
2022/06/18 19:27:06;;;;;;;0.40;0.40;;;29.10;40.50;;;29.69;28.15;95088.97;5048248;28;20211;-80
2022/06/18 19:29:36;;;;;;;0.30;0.30;;;29.00;41.20;;;29.58;28.40;95093.81;5034521;28;20234;-80
2022/06/18 19:32:05;;;;;;;0.28;0.28;;;28.90;41.30;;;29.48;28.25;95097.59;5051044;28;20622;-80
2022/06/18 19:34:33;;;;;;;0.20;0.20;;;28.70;41.50;;;29.39;28.62;95096.72;5067054;28;20606;-78
2022/06/18 19:37:00;;;;;;;0.32;0.32;;;28.60;41.50;;;29.29;28.94;95102.34;5035907;28;20193;-80
2022/06/18 19:39:37;;;;;;;0.20;0.20;;;28.50;42.30;;;29.17;29.17;95103.69;5035551;28;20237;-79
2022/06/18 19:42:06;;;;;;;0.30;0.30;;;28.40;42.60;;;29.06;29.41;95100.44;5051154;28;20709;-79
2022/06/18 19:44:34;;;;;;;0.32;0.32;;;28.30;42.50;;;28.97;29.18;95096.84;5050513;28;20222;-79
2022/06/18 19:47:01;;;;;;;0.30;0.30;;;28.20;42.70;;;28.87;29.11;95105.97;5050264;28;20208;-79
2022/06/18 19:49:29;;;;;;;0.40;0.40;;;28.10;42.60;;;28.80;29.21;95099.41;5044420;28;20222;-80
2022/06/18 19:52:00;;;;;;;0.30;0.30;;;28.00;42.70;;;28.72;29.55;95104.44;5046851;28;20227;-78
2022/06/18 19:54:47;;;;;;;0.22;0.22;;;27.90;43.20;;;28.61;29.62;95103.00;5018019;28;20223;-78
2022/06/18 19:57:16;;;;;;;0.30;0.30;;;27.80;43.40;;;28.52;30.31;95107.53;5030688;28;20226;-79
2022/06/18 19:59:44;;;;;;;0.35;0.35;;;27.70;44.00;;;28.40;30.15;95099.94;5031059;28;20284;-80
2022/06/18 20:02:20;;;;;;;0.20;0.20;;;27.60;44.30;;;28.30;30.12;95105.53;5059798;28;20280;-78
2022/06/18 20:04:50;;;;;;;0.30;0.30;;;27.50;44.20;;;28.20;30.40;95104.63;5033564;28;20250;-79
2022/06/18 20:07:18;;;;;;;0.40;0.40;;;27.40;44.70;;;28.13;30.39;95103.44;5051650;28;20203;-78
2022/06/18 20:09:46;;;;;;;0.28;0.28;;;27.40;44.10;;;28.04;30.57;95101.41;5034501;28;20214;-77
2022/06/18 20:12:16;;;;;;;0.20;0.20;;;27.30;44.90;;;27.96;30.62;95108.31;5050631;28;20614;-77
2022/06/18 20:14:46;;;;;;;0.30;0.30;;;27.20;44.80;;;27.88;30.66;95106.28;5050228;28;20229;-78
2022/06/18 20:17:13;;;;;;;0.38;0.38;;;27.10;44.70;;;27.77;30.85;95100.28;5051737;28;20221;-79
2022/06/18 20:19:40;;;;;;;0.30;0.30;;;27.00;44.60;;;27.71;30.92;95098.78;5034806;28;20242;-78
2022/06/18 20:22:12;;;;;;;0.30;0.30;;;27.00;44.80;;;27.63;31.10;95094.84;5051687;28;20191;-78
2022/06/18 20:24:40;;;;;;;0.30;0.30;;;26.90;44.50;;;27.57;31.58;95098.72;5051562;28;20308;-78
2022/06/18 20:27:07;;;;;;;0.30;0.30;;;26.80;45.10;;;27.52;31.30;95093.44;5033869;28;20265;-78
2022/06/18 20:29:34;;;;;;;0.30;0.30;;;26.80;45.00;;;27.47;31.29;95093.53;5034838;28;20225;-78
2022/06/18 20:32:03;;;;;;;0.30;0.30;;;26.70;45.60;;;27.42;31.25;95089.00;5047553;28;20204;-78
2022/06/18 20:34:32;;;;;;;0.40;0.40;;;26.60;45.20;;;27.39;31.34;95091.47;5030566;28;20218;-78
2022/06/18 20:37:00;;;;;;;0.30;0.30;;;26.60;45.90;;;27.32;31.64;95086.47;5045786;28;20225;-78
2022/06/18 20:39:27;;;;;;;0.30;0.30;;;26.60;45.80;;;27.25;31.79;95086.84;5034456;28;20611;-78
2022/06/18 20:41:56;;;;;;;0.30;0.30;;;26.50;45.80;;;27.23;32.17;95088.22;5041543;28;20203;-78
2022/06/18 20:44:24;;;;;;;0.40;0.40;;;26.50;46.10;;;27.20;32.21;95094.22;5056797;28;20287;-77
2022/06/18 20:46:51;;;;;;;0.30;0.30;;;26.50;47.50;;;27.15;32.23;95092.38;5024446;28;20217;-77
2022/06/18 20:49:19;;;;;;;0.30;0.30;;;26.40;46.00;;;27.12;32.19;95091.09;5042156;28;20268;-77
2022/06/18 20:51:48;;;;;;;0.38;0.38;;;26.40;46.20;;;27.05;32.52;95093.34;5041481;28;20205;-78
2022/06/18 20:57:16;;;;;;;0.35;0.35;;;26.30;47.30;;;26.90;32.31;95080.09;5064390;28;20271;-78
2022/06/18 20:59:51;;;;;;;0.50;0.50;;;26.30;46.40;;;26.77;32.80;95068.97;5039077;28;20224;-79
2022/06/18 21:02:27;;;;;;;0.38;0.38;;;26.20;46.60;;;26.76;32.72;95080.03;5039191;28;20589;-78
2022/06/18 21:04:58;;;;;;;0.30;0.30;;;26.10;46.70;;;26.68;32.91;95082.25;5042634;28;20212;-78
2022/06/18 21:07:28;;;;;;;0.50;0.50;;;26.10;46.90;;;26.60;33.16;95071.31;5024283;28;20758;-78
2022/06/18 21:09:55;;;;;;;0.35;0.35;;;26.00;48.40;;;26.56;33.33;95070.31;5025690;28;20220;-78
2022/06/18 21:12:26;;;;;;;0.38;0.38;;;26.00;47.50;;;26.46;33.64;95072.03;5033757;28;20274;-77
2022/06/18 21:14:55;;;;;;;0.30;0.30;;;25.90;47.70;;;26.32;33.74;95066.59;5041008;28;20355;-77
2022/06/18 21:17:23;;;;;;;0.50;0.50;;;25.80;47.80;;;26.24;33.80;95067.22;5014934;28;20201;-77
2022/06/18 21:19:50;;;;;;;0.40;0.40;;;25.80;48.20;;;26.20;33.75;95076.97;5033151;28;20251;-78
2022/06/18 21:22:19;;;;;;;0.40;0.40;;;25.70;48.50;;;26.09;34.14;95078.97;5034190;28;20572;-78
2022/06/18 21:24:47;;;;;;;0.30;0.30;;;25.60;48.80;;;25.96;34.17;95071.56;5037234;28;20253;-81
2022/06/18 21:27:19;;;;;;;0.30;0.30;;;25.50;49.20;;;25.87;34.53;95077.53;5053684;28;20534;-77
2022/06/18 21:29:47;;;;;;;0.40;0.40;;;25.40;50.10;;;25.77;34.50;95083.03;5053839;28;20222;-77
2022/06/18 21:38:07;;;;;;;0.50;0.50;;;25.00;50.30;;;25.35;35.04;95074.53;5017135;28;20219;-77
2022/06/18 21:40:51;;;;;;;0.22;0.22;;;24.80;50.00;;;25.25;35.28;95079.97;5036682;28;20218;-77
2022/06/18 21:43:23;;;;;;;0.38;0.38;;;24.70;50.90;;;25.16;34.88;95078.97;5034951;28;20644;-77
2022/06/18 21:45:51;;;;;;;0.40;0.40;;;24.60;50.60;;;25.08;35.57;95085.75;5048173;28;20219;-78
2022/06/18 21:48:18;;;;;;;0.40;0.40;;;24.50;51.00;;;24.93;35.82;95074.03;5051144;28;20205;-78
2022/06/18 21:50:45;;;;;;;0.30;0.30;;;24.40;51.40;;;24.75;36.53;95086.22;5034157;28;20228;-78
2022/06/18 21:53:12;;;;;;;0.40;0.40;;;24.30;51.70;;;24.53;36.75;95075.84;5033436;28;20196;-78
2022/06/18 21:55:46;;;;;;;0.40;0.40;;;24.20;52.00;;;24.36;36.96;95083.47;5037417;28;20219;-77
2022/06/18 21:58:18;;;;;;;0.40;0.40;;;24.10;52.80;;;24.19;36.91;95076.53;5037962;28;20276;-78
2022/06/18 22:00:45;;;;;;;0.40;0.40;;;23.90;52.40;;;24.06;36.99;95071.75;5038265;28;20319;-77
2022/06/18 22:03:14;;;;;;;0.40;0.40;;;23.70;52.20;;;23.90;37.32;95071.81;5052711;28;20665;-78
2022/06/18 22:05:44;;;;;;;0.30;0.30;;;23.60;52.40;;;23.81;37.58;95082.28;5053088;28;20214;-77
2022/06/18 22:08:13;;;;;;;0.40;0.40;;;23.40;53.30;;;23.70;37.96;95077.22;5051722;28;20213;-78
2022/06/18 22:10:42;;;;;;;0.40;0.40;;;23.30;53.00;;;23.61;37.73;95079.63;5056941;28;20613;-78
2022/06/18 22:18:47;;;;;;;0.40;0.40;;;22.90;53.60;;;23.34;37.95;95075.38;5060717;28;20261;-77
2022/06/18 22:21:21;;;;;;;0.40;0.40;;;22.80;53.50;;;23.28;37.98;95087.16;5056065;28;20252;-75
2022/06/18 22:23:50;;;;;;;0.40;0.40;;;22.80;53.60;;;23.22;37.83;95090.88;5062514;28;20197;-77
2022/06/18 22:26:18;;;;;;;0.40;0.40;;;22.70;53.30;;;23.18;37.71;95085.28;5057814;28;20250;-77
2022/06/18 22:28:47;;;;;;;0.40;0.40;;;22.60;53.80;;;23.14;38.16;95086.84;5057272;28;20193;-77
2022/06/18 22:31:18;;;;;;;0.40;0.40;;;22.60;54.40;;;23.09;38.88;95082.28;5068571;28;20228;-77
2022/06/18 22:33:46;;;;;;;0.40;0.40;;;22.50;54.50;;;23.05;38.59;95083.13;5054145;28;20511;-77
2022/06/18 22:36:14;;;;;;;0.30;0.30;;;22.40;54.70;;;22.99;38.42;95088.44;5036875;28;20354;-77
2022/06/18 22:38:41;;;;;;;0.47;0.47;;;22.40;54.80;;;22.92;38.83;95084.44;5036739;28;20224;-77
2022/06/18 22:43:58;;;;;;;0.40;0.40;;;22.30;55.50;;;22.79;39.26;95089.22;5052527;28;20212;-77
2022/06/18 22:46:31;;;;;;;0.30;0.30;;;22.20;55.60;;;22.73;39.59;95084.94;5053209;28;20231;-77
2022/06/18 22:48:58;;;;;;;0.40;0.40;;;22.10;55.60;;;22.65;39.45;95086.25;5020487;28;20205;-77
2022/06/18 22:51:27;;;;;;;0.40;0.40;;;22.10;55.30;;;22.62;39.63;95085.97;5053283;28;20219;-77
2022/06/18 22:53:54;;;;;;;0.40;0.40;;;22.10;55.50;;;22.55;39.56;95088.91;5018506;28;20575;-77
2022/06/18 22:56:21;;;;;;;0.40;0.40;;;22.00;55.70;;;22.51;39.79;95085.16;5052970;28;20226;-77
2022/06/18 22:58:48;;;;;;;0.30;0.30;;;22.00;55.70;;;22.47;39.80;95086.72;5036780;28;20694;-77
2022/06/18 23:01:16;;;;;;;0.40;0.40;;;21.90;55.80;;;22.44;39.86;95084.59;5052560;28;20590;-77
2022/06/18 23:03:44;;;;;;;0.40;0.40;;;21.80;56.00;;;22.39;40.34;95082.72;5036788;28;20313;-77
2022/06/18 23:06:17;;;;;;;0.32;0.32;;;21.80;56.00;;;22.35;40.06;95081.56;5052887;28;20203;-76
2022/06/18 23:08:50;;;;;;;0.40;0.40;;;21.70;57.00;;;22.31;40.12;95080.50;5052947;28;20205;-76
2022/06/18 23:14:11;;;;;;;0.38;0.38;;;21.70;57.40;;;22.21;40.79;95075.94;5052828;28;20649;-77
2022/06/18 23:16:38;;;;;;;0.32;0.32;;;21.60;56.60;;;22.22;40.29;95089.00;5020150;28;20206;-77
2022/06/18 23:19:06;;;;;;;0.40;0.40;;;21.60;56.40;;;22.21;40.89;95083.94;5052769;28;20298;-77
2022/06/18 23:21:34;;;;;;;0.30;0.30;;;21.60;56.80;;;22.20;40.72;95082.31;5035498;28;20204;-78
2022/06/18 23:24:02;;;;;;;0.40;0.40;;;21.60;57.20;;;22.18;41.01;95087.94;5034835;28;20215;-77
2022/06/18 23:26:29;;;;;;;0.40;0.40;;;21.60;57.20;;;22.15;40.69;95076.97;5052022;28;20250;-77
2022/06/18 23:28:57;;;;;;;0.40;0.40;;;21.50;57.30;;;22.11;41.01;95082.03;5035589;28;20227;-78
2022/06/18 23:31:27;;;;;;;0.35;0.35;;;21.60;57.50;;;22.07;41.45;95087.09;5052387;28;20221;-78
2022/06/18 23:33:57;;;;;;;0.40;0.40;;;21.50;57.60;;;22.03;41.52;95083.34;5052182;28;20207;-78
2022/06/18 23:36:24;;;;;;;0.60;0.60;;;21.50;57.40;;;21.99;41.03;95078.78;5052494;28;20211;-77
2022/06/18 23:38:51;;;;;;;0.50;0.50;;;21.40;57.70;;;21.95;41.52;95072.31;5052672;28;20622;-78
2022/06/18 23:41:18;;;;;;;0.40;0.40;;;21.40;57.80;;;21.91;41.48;95067.53;5035254;28;20310;-78
2022/06/18 23:43:45;;;;;;;0.40;0.40;;;21.40;57.70;;;21.88;41.43;95067.22;5034091;28;20198;-78
2022/06/18 23:46:13;;;;;;;0.40;0.40;;;21.30;57.70;;;21.81;41.60;95066.66;5035835;28;20739;-77
2022/06/18 23:48:40;;;;;;;0.40;0.40;;;21.30;57.70;;;21.78;41.56;95069.88;5052884;28;20638;-78
2022/06/18 23:51:07;;;;;;;0.30;0.30;;;21.20;57.90;;;21.70;41.51;95063.94;5035702;28;20238;-78
2022/06/18 23:53:34;;;;;;;0.40;0.40;;;21.20;57.80;;;21.69;41.94;95073.00;5051709;28;20203;-78
2022/06/18 23:56:07;;;;;;;0.40;0.40;;;21.20;57.90;;;21.65;42.03;95061.22;5051818;28;20224;-77
2022/06/18 23:58:35;;;;;;;0.40;0.40;;;21.10;58.60;;;21.61;41.95;95062.81;5052302;28;20199;-78
